KHUL/HUL METAR and TAF weather

Enter ICAO airport designator
Station Type Date Time Source
KHUL METAR 2018/12/11 19:53 UTC NOAA

KHUL 111953Z AUTO 21004KT 10SM CLR M08/M16 A2999 RMK AO2 SLP170 T10831156


Station Type Date Time Source
KHUL Decoded METAR 2018/12/11 19:53 UTC NOAA

HOULTON INT'L AIRPORT, ME, United States (KHUL) 46-07N 067-48W 150M
Dec 11, 2018 - 02:53 PM EST / 2018.12.11 1953 UTC
Wind: from the SSW (210 degrees) at 5 MPH (4 KT):0
Visibility: 10 mile(s):0
Sky conditions: clear
Temperature: 17.1 F (-8.3 C)
Windchill: 10 F (-12 C):1
Dew Point: 3.9 F (-15.6 C)
Relative Humidity: 55%
Pressure (altimeter): 29.99 in. Hg (1015 hPa)
ob: KHUL 111953Z AUTO 21004KT 10SM CLR M08/M16 A2999 RMK AO2 SLP170 T10831156
cycle: 20

Station Type Date Time Source
KHUL TAF 2018/12/11 18:27 UTC NOAA

TAF KHUL 111723Z 1118/1218 22004KT P6SM SCT120 BKN220
FM120000 VRB02KT P6SM FEW050
FM120300 VRB02KT P6SM BKN045
FM120700 35003KT P6SM BKN035
FM121400 35008G15KT P6SM SCT045


Example: see airport list